sensor_id;sensor_type;location;lat;lon;timestamp;P1;durP1;ratioP1;P2;durP2;ratioP2
31618;SDS011;18230;51.502;7.108;2023-08-01T00:01:59;1.20;;;1.10;;
31618;SDS011;18230;51.502;7.108;2023-08-01T00:07:00;9.50;;;1.40;;
31618;SDS011;18230;51.502;7.108;2023-08-01T00:12:01;0.93;;;0.60;;
31618;SDS011;18230;51.502;7.108;2023-08-01T00:17:01;0.80;;;0.60;;
31618;SDS011;18230;51.502;7.108;2023-08-01T00:22:02;10.73;;;0.85;;
31618;SDS011;18230;51.502;7.108;2023-08-01T00:27:03;2.78;;;0.88;;
31618;SDS011;18230;51.502;7.108;2023-08-01T00:32:04;1.55;;;0.80;;
31618;SDS011;18230;51.502;7.108;2023-08-01T00:37:05;1.20;;;0.90;;
31618;SDS011;18230;51.502;7.108;2023-08-01T00:42:06;3.20;;;1.05;;
31618;SDS011;18230;51.502;7.108;2023-08-01T00:47:07;1.70;;;0.90;;
31618;SDS011;18230;51.502;7.108;2023-08-01T00:52:08;2.47;;;1.27;;
31618;SDS011;18230;51.502;7.108;2023-08-01T00:57:10;2.75;;;1.10;;
31618;SDS011;18230;51.502;7.108;2023-08-01T01:02:11;1.10;;;0.80;;
31618;SDS011;18230;51.502;7.108;2023-08-01T01:07:12;1.80;;;1.00;;
31618;SDS011;18230;51.502;7.108;2023-08-01T01:12:15;1.83;;;1.10;;
31618;SDS011;18230;51.502;7.108;2023-08-01T01:17:15;2.60;;;1.58;;
31618;SDS011;18230;51.502;7.108;2023-08-01T01:22:16;3.08;;;2.20;;
31618;SDS011;18230;51.502;7.108;2023-08-01T01:27:18;6.95;;;3.15;;
31618;SDS011;18230;51.502;7.108;2023-08-01T01:32:19;4.20;;;3.00;;
31618;SDS011;18230;51.502;7.108;2023-08-01T01:37:20;2.45;;;2.05;;
31618;SDS011;18230;51.502;7.108;2023-08-01T01:42:21;4.57;;;1.98;;
31618;SDS011;18230;51.502;7.108;2023-08-01T01:47:21;3.00;;;1.77;;
31618;SDS011;18230;51.502;7.108;2023-08-01T01:52:22;3.92;;;1.88;;
31618;SDS011;18230;51.502;7.108;2023-08-01T01:57:23;5.20;;;2.80;;
31618;SDS011;18230;51.502;7.108;2023-08-01T02:02:23;7.10;;;4.55;;
31618;SDS011;18230;51.502;7.108;2023-08-01T02:07:24;9.95;;;5.45;;
31618;SDS011;18230;51.502;7.108;2023-08-01T02:12:25;12.00;;;6.72;;
31618;SDS011;18230;51.502;7.108;2023-08-01T02:17:25;9.40;;;6.20;;
31618;SDS011;18230;51.502;7.108;2023-08-01T02:22:27;12.45;;;5.68;;
31618;SDS011;18230;51.502;7.108;2023-08-01T02:27:28;8.25;;;4.85;;
31618;SDS011;18230;51.502;7.108;2023-08-01T02:32:29;11.00;;;3.92;;
31618;SDS011;18230;51.502;7.108;2023-08-01T02:37:29;8.30;;;3.80;;
31618;SDS011;18230;51.502;7.108;2023-08-01T02:42:30;7.78;;;4.25;;
31618;SDS011;18230;51.502;7.108;2023-08-01T02:47:31;7.22;;;4.43;;
31618;SDS011;18230;51.502;7.108;2023-08-01T02:52:31;10.93;;;5.03;;
31618;SDS011;18230;51.502;7.108;2023-08-01T02:57:32;8.82;;;5.00;;
31618;SDS011;18230;51.502;7.108;2023-08-01T03:02:32;10.18;;;6.30;;
31618;SDS011;18230;51.502;7.108;2023-08-01T03:07:33;12.38;;;7.30;;
31618;SDS011;18230;51.502;7.108;2023-08-01T03:12:34;14.25;;;7.40;;
31618;SDS011;18230;51.502;7.108;2023-08-01T03:17:35;14.30;;;8.63;;
31618;SDS011;18230;51.502;7.108;2023-08-01T03:22:39;20.73;;;10.20;;
31618;SDS011;18230;51.502;7.108;2023-08-01T03:27:40;15.02;;;11.45;;
31618;SDS011;18230;51.502;7.108;2023-08-01T03:32:41;17.40;;;12.73;;
31618;SDS011;18230;51.502;7.108;2023-08-01T03:37:41;31.15;;;16.90;;
31618;SDS011;18230;51.502;7.108;2023-08-01T03:42:42;30.10;;;18.40;;
31618;SDS011;18230;51.502;7.108;2023-08-01T03:47:43;35.67;;;21.67;;
31618;SDS011;18230;51.502;7.108;2023-08-01T03:52:44;30.45;;;20.98;;
31618;SDS011;18230;51.502;7.108;2023-08-01T03:57:45;37.17;;;21.75;;
31618;SDS011;18230;51.502;7.108;2023-08-01T04:02:46;30.48;;;19.52;;
31618;SDS011;18230;51.502;7.108;2023-08-01T04:07:46;28.60;;;18.15;;
31618;SDS011;18230;51.502;7.108;2023-08-01T04:12:47;36.15;;;16.75;;
31618;SDS011;18230;51.502;7.108;2023-08-01T04:17:48;30.42;;;15.68;;
31618;SDS011;18230;51.502;7.108;2023-08-01T04:22:49;24.40;;;13.27;;
31618;SDS011;18230;51.502;7.108;2023-08-01T04:27:49;25.75;;;12.73;;
31618;SDS011;18230;51.502;7.108;2023-08-01T04:32:50;23.27;;;13.02;;
31618;SDS011;18230;51.502;7.108;2023-08-01T04:37:51;23.58;;;13.75;;
31618;SDS011;18230;51.502;7.108;2023-08-01T04:42:51;29.30;;;15.20;;
31618;SDS011;18230;51.502;7.108;2023-08-01T04:47:54;29.13;;;14.02;;
31618;SDS011;18230;51.502;7.108;2023-08-01T04:52:55;30.83;;;15.27;;
31618;SDS011;18230;51.502;7.108;2023-08-01T04:57:56;27.40;;;14.50;;
31618;SDS011;18230;51.502;7.108;2023-08-01T05:02:56;32.05;;;16.67;;
31618;SDS011;18230;51.502;7.108;2023-08-01T05:07:57;31.95;;;15.60;;
31618;SDS011;18230;51.502;7.108;2023-08-01T05:12:58;27.73;;;16.48;;
31618;SDS011;18230;51.502;7.108;2023-08-01T05:17:59;33.40;;;15.98;;
31618;SDS011;18230;51.502;7.108;2023-08-01T05:22:59;26.13;;;16.83;;
31618;SDS011;18230;51.502;7.108;2023-08-01T05:28:00;29.63;;;15.98;;
31618;SDS011;18230;51.502;7.108;2023-08-01T05:33:01;26.38;;;16.65;;
31618;SDS011;18230;51.502;7.108;2023-08-01T05:38:01;36.15;;;17.92;;
31618;SDS011;18230;51.502;7.108;2023-08-01T05:43:02;31.23;;;17.60;;
31618;SDS011;18230;51.502;7.108;2023-08-01T05:48:05;38.22;;;20.13;;
31618;SDS011;18230;51.502;7.108;2023-08-01T05:53:06;38.20;;;20.00;;
31618;SDS011;18230;51.502;7.108;2023-08-01T05:58:07;36.05;;;19.85;;
31618;SDS011;18230;51.502;7.108;2023-08-01T06:03:08;37.65;;;21.40;;
31618;SDS011;18230;51.502;7.108;2023-08-01T06:08:09;34.40;;;20.80;;
31618;SDS011;18230;51.502;7.108;2023-08-01T06:13:10;37.80;;;21.95;;
31618;SDS011;18230;51.502;7.108;2023-08-01T06:18:10;33.35;;;20.73;;
31618;SDS011;18230;51.502;7.108;2023-08-01T06:23:11;34.53;;;19.95;;
31618;SDS011;18230;51.502;7.108;2023-08-01T06:28:12;42.53;;;19.85;;
31618;SDS011;18230;51.502;7.108;2023-08-01T06:33:13;31.98;;;19.00;;
31618;SDS011;18230;51.502;7.108;2023-08-01T06:38:13;33.08;;;18.80;;
31618;SDS011;18230;51.502;7.108;2023-08-01T06:43:14;30.23;;;17.83;;
31618;SDS011;18230;51.502;7.108;2023-08-01T06:48:15;32.92;;;17.77;;
31618;SDS011;18230;51.502;7.108;2023-08-01T06:53:15;31.60;;;18.10;;
31618;SDS011;18230;51.502;7.108;2023-08-01T06:58:16;35.25;;;18.15;;
31618;SDS011;18230;51.502;7.108;2023-08-01T07:03:17;28.85;;;18.38;;
31618;SDS011;18230;51.502;7.108;2023-08-01T07:08:17;29.35;;;16.48;;
31618;SDS011;18230;51.502;7.108;2023-08-01T07:13:18;26.10;;;16.30;;
31618;SDS011;18230;51.502;7.108;2023-08-01T07:18:19;27.90;;;16.52;;
31618;SDS011;18230;51.502;7.108;2023-08-01T07:23:20;25.83;;;15.20;;
31618;SDS011;18230;51.502;7.108;2023-08-01T07:28:20;29.90;;;13.70;;
31618;SDS011;18230;51.502;7.108;2023-08-01T07:33:21;22.33;;;13.20;;
31618;SDS011;18230;51.502;7.108;2023-08-01T07:38:22;22.25;;;12.27;;
31618;SDS011;18230;51.502;7.108;2023-08-01T07:43:23;20.65;;;11.25;;
31618;SDS011;18230;51.502;7.108;2023-08-01T07:48:25;17.60;;;10.63;;
31618;SDS011;18230;51.502;7.108;2023-08-01T07:53:26;18.00;;;10.32;;
31618;SDS011;18230;51.502;7.108;2023-08-01T07:58:27;25.33;;;10.68;;
31618;SDS011;18230;51.502;7.108;2023-08-01T08:03:29;20.25;;;9.35;;
31618;SDS011;18230;51.502;7.108;2023-08-01T08:08:30;22.88;;;9.20;;
31618;SDS011;18230;51.502;7.108;2023-08-01T08:13:32;19.17;;;9.57;;
31618;SDS011;18230;51.502;7.108;2023-08-01T08:18:32;20.77;;;9.80;;
31618;SDS011;18230;51.502;7.108;2023-08-01T08:23:33;18.95;;;9.18;;
31618;SDS011;18230;51.502;7.108;2023-08-01T08:28:34;17.35;;;8.70;;
31618;SDS011;18230;51.502;7.108;2023-08-01T08:33:35;21.08;;;9.00;;
31618;SDS011;18230;51.502;7.108;2023-08-01T08:38:35;23.73;;;9.63;;
31618;SDS011;18230;51.502;7.108;2023-08-01T08:43:36;16.73;;;7.97;;
31618;SDS011;18230;51.502;7.108;2023-08-01T08:48:37;22.20;;;8.57;;
31618;SDS011;18230;51.502;7.108;2023-08-01T08:53:41;19.17;;;8.15;;
31618;SDS011;18230;51.502;7.108;2023-08-01T08:58:45;14.13;;;8.50;;
31618;SDS011;18230;51.502;7.108;2023-08-01T09:03:47;20.58;;;8.27;;
31618;SDS011;18230;51.502;7.108;2023-08-01T09:08:51;15.65;;;8.00;;
31618;SDS011;18230;51.502;7.108;2023-08-01T09:13:59;12.65;;;7.25;;
31618;SDS011;18230;51.502;7.108;2023-08-01T09:19:00;10.77;;;6.28;;
31618;SDS011;18230;51.502;7.108;2023-08-01T09:24:11;16.33;;;6.60;;
31618;SDS011;18230;51.502;7.108;2023-08-01T09:29:16;10.40;;;5.50;;
31618;SDS011;18230;51.502;7.108;2023-08-01T09:34:27;11.75;;;5.35;;
31618;SDS011;18230;51.502;7.108;2023-08-01T09:39:27;5.70;;;3.70;;
31618;SDS011;18230;51.502;7.108;2023-08-01T09:44:29;12.70;;;4.78;;
31618;SDS011;18230;51.502;7.108;2023-08-01T09:49:30;12.18;;;4.55;;
31618;SDS011;18230;51.502;7.108;2023-08-01T09:54:31;14.18;;;5.20;;
31618;SDS011;18230;51.502;7.108;2023-08-01T09:59:32;8.43;;;3.83;;
31618;SDS011;18230;51.502;7.108;2023-08-01T10:04:34;9.40;;;4.22;;
31618;SDS011;18230;51.502;7.108;2023-08-01T10:09:37;9.40;;;4.43;;
31618;SDS011;18230;51.502;7.108;2023-08-01T10:14:39;7.55;;;4.15;;
31618;SDS011;18230;51.502;7.108;2023-08-01T10:19:41;10.80;;;4.20;;
31618;SDS011;18230;51.502;7.108;2023-08-01T10:24:42;11.63;;;5.15;;
31618;SDS011;18230;51.502;7.108;2023-08-01T10:29:44;13.50;;;4.57;;
31618;SDS011;18230;51.502;7.108;2023-08-01T10:34:51;11.10;;;4.20;;
31618;SDS011;18230;51.502;7.108;2023-08-01T10:39:58;9.07;;;3.72;;
31618;SDS011;18230;51.502;7.108;2023-08-01T10:44:59;8.23;;;3.60;;
31618;SDS011;18230;51.502;7.108;2023-08-01T10:50:00;9.50;;;3.53;;
31618;SDS011;18230;51.502;7.108;2023-08-01T10:55:02;8.63;;;3.63;;
31618;SDS011;18230;51.502;7.108;2023-08-01T11:00:05;9.05;;;3.47;;
31618;SDS011;18230;51.502;7.108;2023-08-01T11:05:10;6.63;;;3.75;;
31618;SDS011;18230;51.502;7.108;2023-08-01T11:10:12;7.63;;;4.18;;
31618;SDS011;18230;51.502;7.108;2023-08-01T11:15:14;11.68;;;3.45;;
31618;SDS011;18230;51.502;7.108;2023-08-01T11:20:15;8.15;;;3.67;;
31618;SDS011;18230;51.502;7.108;2023-08-01T11:25:17;11.45;;;3.20;;
31618;SDS011;18230;51.502;7.108;2023-08-01T11:30:18;8.30;;;3.15;;
31618;SDS011;18230;51.502;7.108;2023-08-01T11:35:19;11.40;;;2.83;;
31618;SDS011;18230;51.502;7.108;2023-08-01T11:40:20;4.60;;;2.10;;
31618;SDS011;18230;51.502;7.108;2023-08-01T11:45:20;7.50;;;2.30;;
31618;SDS011;18230;51.502;7.108;2023-08-01T11:50:22;7.47;;;2.83;;
31618;SDS011;18230;51.502;7.108;2023-08-01T11:55:26;5.20;;;2.97;;
31618;SDS011;18230;51.502;7.108;2023-08-01T12:00:28;6.53;;;2.42;;
31618;SDS011;18230;51.502;7.108;2023-08-01T12:05:29;4.80;;;2.15;;
31618;SDS011;18230;51.502;7.108;2023-08-01T12:10:40;7.15;;;2.40;;
31618;SDS011;18230;51.502;7.108;2023-08-01T12:15:41;7.18;;;2.53;;
31618;SDS011;18230;51.502;7.108;2023-08-01T12:20:42;6.57;;;2.20;;
31618;SDS011;18230;51.502;7.108;2023-08-01T12:25:43;8.90;;;2.70;;
31618;SDS011;18230;51.502;7.108;2023-08-01T12:30:44;11.05;;;3.40;;
31618;SDS011;18230;51.502;7.108;2023-08-01T12:35:44;11.95;;;3.55;;
31618;SDS011;18230;51.502;7.108;2023-08-01T12:40:45;10.13;;;2.83;;
31618;SDS011;18230;51.502;7.108;2023-08-01T12:45:47;7.20;;;2.92;;
31618;SDS011;18230;51.502;7.108;2023-08-01T12:50:48;6.85;;;3.33;;
31618;SDS011;18230;51.502;7.108;2023-08-01T12:55:49;11.00;;;3.40;;
31618;SDS011;18230;51.502;7.108;2023-08-01T13:00:51;12.13;;;3.78;;
31618;SDS011;18230;51.502;7.108;2023-08-01T13:05:51;7.30;;;2.78;;
31618;SDS011;18230;51.502;7.108;2023-08-01T13:10:52;8.38;;;2.85;;
31618;SDS011;18230;51.502;7.108;2023-08-01T13:15:55;8.02;;;3.03;;
31618;SDS011;18230;51.502;7.108;2023-08-01T13:20:57;6.55;;;2.63;;
31618;SDS011;18230;51.502;7.108;2023-08-01T13:25:59;10.90;;;3.03;;
31618;SDS011;18230;51.502;7.108;2023-08-01T13:31:02;10.27;;;3.08;;
31618;SDS011;18230;51.502;7.108;2023-08-01T13:36:02;10.95;;;2.70;;
31618;SDS011;18230;51.502;7.108;2023-08-01T13:41:03;7.68;;;2.53;;
31618;SDS011;18230;51.502;7.108;2023-08-01T13:51:34;12.18;;;2.90;;
31618;SDS011;18230;51.502;7.108;2023-08-01T13:56:35;7.38;;;2.72;;
31618;SDS011;18230;51.502;7.108;2023-08-01T14:01:35;7.57;;;2.70;;
31618;SDS011;18230;51.502;7.108;2023-08-01T14:06:38;9.18;;;2.70;;
31618;SDS011;18230;51.502;7.108;2023-08-01T14:11:40;11.00;;;2.85;;
31618;SDS011;18230;51.502;7.108;2023-08-01T14:16:40;8.65;;;2.70;;
31618;SDS011;18230;51.502;7.108;2023-08-01T14:21:41;7.25;;;2.10;;
31618;SDS011;18230;51.502;7.108;2023-08-01T14:26:42;8.48;;;2.20;;
31618;SDS011;18230;51.502;7.108;2023-08-01T14:31:43;7.55;;;2.28;;
31618;SDS011;18230;51.502;7.108;2023-08-01T14:36:43;7.63;;;2.33;;
31618;SDS011;18230;51.502;7.108;2023-08-01T14:41:44;8.95;;;2.30;;
31618;SDS011;18230;51.502;7.108;2023-08-01T14:46:45;9.10;;;2.38;;
31618;SDS011;18230;51.502;7.108;2023-08-01T14:51:45;6.43;;;2.55;;
31618;SDS011;18230;51.502;7.108;2023-08-01T14:56:46;6.32;;;2.58;;
31618;SDS011;18230;51.502;7.108;2023-08-01T15:01:47;7.40;;;2.38;;
31618;SDS011;18230;51.502;7.108;2023-08-01T15:06:47;9.23;;;2.53;;
31618;SDS011;18230;51.502;7.108;2023-08-01T15:11:48;8.48;;;2.65;;
31618;SDS011;18230;51.502;7.108;2023-08-01T15:16:49;9.25;;;2.25;;
31618;SDS011;18230;51.502;7.108;2023-08-01T15:21:49;6.97;;;2.15;;
31618;SDS011;18230;51.502;7.108;2023-08-01T15:26:50;6.47;;;2.45;;
31618;SDS011;18230;51.502;7.108;2023-08-01T15:31:51;4.95;;;1.83;;
31618;SDS011;18230;51.502;7.108;2023-08-01T15:36:51;11.80;;;2.80;;
31618;SDS011;18230;51.502;7.108;2023-08-01T15:41:53;7.15;;;2.10;;
31618;SDS011;18230;51.502;7.108;2023-08-01T15:46:54;7.53;;;2.20;;
31618;SDS011;18230;51.502;7.108;2023-08-01T15:51:54;8.68;;;2.03;;
31618;SDS011;18230;51.502;7.108;2023-08-01T15:56:55;6.78;;;1.80;;
31618;SDS011;18230;51.502;7.108;2023-08-01T16:01:56;6.03;;;2.17;;
31618;SDS011;18230;51.502;7.108;2023-08-01T16:06:56;7.43;;;2.28;;
31618;SDS011;18230;51.502;7.108;2023-08-01T16:11:57;7.47;;;2.33;;
31618;SDS011;18230;51.502;7.108;2023-08-01T16:16:59;8.07;;;2.20;;
31618;SDS011;18230;51.502;7.108;2023-08-01T16:22:00;6.35;;;2.22;;
31618;SDS011;18230;51.502;7.108;2023-08-01T16:27:01;17.73;;;2.65;;
31618;SDS011;18230;51.502;7.108;2023-08-01T16:32:02;6.13;;;2.00;;
31618;SDS011;18230;51.502;7.108;2023-08-01T16:37:03;3.30;;;1.65;;
31618;SDS011;18230;51.502;7.108;2023-08-01T16:42:05;11.05;;;1.98;;
31618;SDS011;18230;51.502;7.108;2023-08-01T16:47:06;6.30;;;2.03;;
31618;SDS011;18230;51.502;7.108;2023-08-01T16:52:07;6.45;;;2.47;;
31618;SDS011;18230;51.502;7.108;2023-08-01T16:57:08;5.68;;;1.95;;
31618;SDS011;18230;51.502;7.108;2023-08-01T17:02:09;4.10;;;1.38;;
31618;SDS011;18230;51.502;7.108;2023-08-01T17:07:10;8.98;;;1.67;;
31618;SDS011;18230;51.502;7.108;2023-08-01T17:12:10;4.07;;;1.50;;
31618;SDS011;18230;51.502;7.108;2023-08-01T17:17:11;6.60;;;1.70;;
31618;SDS011;18230;51.502;7.108;2023-08-01T17:22:12;5.47;;;1.20;;
31618;SDS011;18230;51.502;7.108;2023-08-01T17:27:12;6.85;;;1.20;;
31618;SDS011;18230;51.502;7.108;2023-08-01T17:32:13;6.35;;;1.42;;
31618;SDS011;18230;51.502;7.108;2023-08-01T17:37:14;5.90;;;2.00;;
31618;SDS011;18230;51.502;7.108;2023-08-01T17:42:17;6.40;;;1.65;;
31618;SDS011;18230;51.502;7.108;2023-08-01T17:47:17;4.15;;;1.65;;
31618;SDS011;18230;51.502;7.108;2023-08-01T17:52:18;7.13;;;1.63;;
31618;SDS011;18230;51.502;7.108;2023-08-01T17:57:19;3.25;;;1.50;;
31618;SDS011;18230;51.502;7.108;2023-08-01T18:02:20;6.68;;;1.80;;
31618;SDS011;18230;51.502;7.108;2023-08-01T18:07:21;3.95;;;1.80;;
31618;SDS011;18230;51.502;7.108;2023-08-01T18:12:22;3.17;;;1.55;;
31618;SDS011;18230;51.502;7.108;2023-08-01T18:17:22;5.05;;;1.38;;
31618;SDS011;18230;51.502;7.108;2023-08-01T18:22:23;4.53;;;1.45;;
31618;SDS011;18230;51.502;7.108;2023-08-01T18:27:24;7.85;;;1.80;;
31618;SDS011;18230;51.502;7.108;2023-08-01T18:32:25;8.25;;;1.67;;
31618;SDS011;18230;51.502;7.108;2023-08-01T18:37:26;5.97;;;1.90;;
31618;SDS011;18230;51.502;7.108;2023-08-01T18:42:27;6.38;;;2.03;;
31618;SDS011;18230;51.502;7.108;2023-08-01T18:47:27;11.65;;;2.50;;
31618;SDS011;18230;51.502;7.108;2023-08-01T18:52:28;7.97;;;1.75;;
31618;SDS011;18230;51.502;7.108;2023-08-01T18:57:29;6.90;;;1.90;;
31618;SDS011;18230;51.502;7.108;2023-08-01T19:02:30;5.85;;;2.33;;
31618;SDS011;18230;51.502;7.108;2023-08-01T19:07:31;6.15;;;2.22;;
31618;SDS011;18230;51.502;7.108;2023-08-01T19:12:32;7.93;;;2.60;;
31618;SDS011;18230;51.502;7.108;2023-08-01T19:17:32;8.73;;;2.08;;
31618;SDS011;18230;51.502;7.108;2023-08-01T19:22:33;7.25;;;1.90;;
31618;SDS011;18230;51.502;7.108;2023-08-01T19:27:34;7.85;;;2.30;;
31618;SDS011;18230;51.502;7.108;2023-08-01T19:32:35;6.90;;;2.50;;
31618;SDS011;18230;51.502;7.108;2023-08-01T19:37:35;6.07;;;1.83;;
31618;SDS011;18230;51.502;7.108;2023-08-01T19:42:36;10.02;;;2.55;;
31618;SDS011;18230;51.502;7.108;2023-08-01T19:47:37;6.20;;;2.25;;
31618;SDS011;18230;51.502;7.108;2023-08-01T19:52:37;6.55;;;2.08;;
31618;SDS011;18230;51.502;7.108;2023-08-01T19:57:38;6.97;;;2.55;;
31618;SDS011;18230;51.502;7.108;2023-08-01T20:02:40;11.20;;;2.45;;
31618;SDS011;18230;51.502;7.108;2023-08-01T20:07:42;10.13;;;2.33;;
31618;SDS011;18230;51.502;7.108;2023-08-01T20:12:43;6.50;;;2.22;;
31618;SDS011;18230;51.502;7.108;2023-08-01T20:17:45;6.20;;;1.88;;
31618;SDS011;18230;51.502;7.108;2023-08-01T20:22:46;6.20;;;2.33;;
31618;SDS011;18230;51.502;7.108;2023-08-01T20:27:48;9.98;;;2.65;;
31618;SDS011;18230;51.502;7.108;2023-08-01T20:32:49;9.05;;;2.30;;
31618;SDS011;18230;51.502;7.108;2023-08-01T20:37:50;8.50;;;2.50;;
31618;SDS011;18230;51.502;7.108;2023-08-01T20:42:50;8.82;;;2.47;;
31618;SDS011;18230;51.502;7.108;2023-08-01T20:47:51;6.53;;;2.08;;
31618;SDS011;18230;51.502;7.108;2023-08-01T20:52:52;7.82;;;2.33;;
31618;SDS011;18230;51.502;7.108;2023-08-01T20:57:53;9.35;;;2.10;;
31618;SDS011;18230;51.502;7.108;2023-08-01T21:02:53;7.07;;;2.45;;
31618;SDS011;18230;51.502;7.108;2023-08-01T21:07:54;9.93;;;2.58;;
31618;SDS011;18230;51.502;7.108;2023-08-01T21:12:55;11.02;;;2.67;;
31618;SDS011;18230;51.502;7.108;2023-08-01T21:17:55;7.72;;;2.22;;
31618;SDS011;18230;51.502;7.108;2023-08-01T21:22:56;7.90;;;2.00;;
31618;SDS011;18230;51.502;7.108;2023-08-01T21:27:57;7.53;;;2.40;;
31618;SDS011;18230;51.502;7.108;2023-08-01T21:32:57;8.18;;;3.00;;
31618;SDS011;18230;51.502;7.108;2023-08-01T21:37:58;9.35;;;2.10;;
31618;SDS011;18230;51.502;7.108;2023-08-01T21:42:59;5.95;;;2.03;;
31618;SDS011;18230;51.502;7.108;2023-08-01T21:48:00;8.32;;;2.10;;
31618;SDS011;18230;51.502;7.108;2023-08-01T21:53:01;9.95;;;2.13;;
31618;SDS011;18230;51.502;7.108;2023-08-01T21:58:01;6.25;;;2.15;;
31618;SDS011;18230;51.502;7.108;2023-08-01T22:03:03;6.53;;;2.20;;
31618;SDS011;18230;51.502;7.108;2023-08-01T22:08:04;10.48;;;2.38;;
31618;SDS011;18230;51.502;7.108;2023-08-01T22:13:06;7.18;;;2.25;;
31618;SDS011;18230;51.502;7.108;2023-08-01T22:18:07;7.70;;;2.58;;
31618;SDS011;18230;51.502;7.108;2023-08-01T22:23:08;9.77;;;2.70;;
31618;SDS011;18230;51.502;7.108;2023-08-01T22:28:16;11.25;;;2.45;;
31618;SDS011;18230;51.502;7.108;2023-08-01T22:33:18;8.30;;;2.05;;
31618;SDS011;18230;51.502;7.108;2023-08-01T22:38:19;10.45;;;2.55;;
31618;SDS011;18230;51.502;7.108;2023-08-01T22:43:20;11.68;;;2.38;;
31618;SDS011;18230;51.502;7.108;2023-08-01T22:48:21;10.48;;;2.75;;
31618;SDS011;18230;51.502;7.108;2023-08-01T22:53:21;12.93;;;3.15;;
31618;SDS011;18230;51.502;7.108;2023-08-01T22:58:22;7.03;;;2.53;;
31618;SDS011;18230;51.502;7.108;2023-08-01T23:03:26;11.10;;;2.95;;
31618;SDS011;18230;51.502;7.108;2023-08-01T23:08:26;9.43;;;2.60;;
31618;SDS011;18230;51.502;7.108;2023-08-01T23:13:27;7.90;;;2.55;;
31618;SDS011;18230;51.502;7.108;2023-08-01T23:18:29;9.77;;;2.40;;
31618;SDS011;18230;51.502;7.108;2023-08-01T23:23:29;7.63;;;2.65;;
31618;SDS011;18230;51.502;7.108;2023-08-01T23:28:31;11.52;;;2.60;;
31618;SDS011;18230;51.502;7.108;2023-08-01T23:33:32;10.98;;;2.72;;
31618;SDS011;18230;51.502;7.108;2023-08-01T23:38:33;10.25;;;2.85;;
31618;SDS011;18230;51.502;7.108;2023-08-01T23:43:33;10.48;;;2.85;;
31618;SDS011;18230;51.502;7.108;2023-08-01T23:48:34;12.88;;;3.08;;
31618;SDS011;18230;51.502;7.108;2023-08-01T23:53:35;13.07;;;3.10;;
31618;SDS011;18230;51.502;7.108;2023-08-01T23:58:36;12.88;;;2.90;;
